createdAt,value
2023-05-01T16:15:20.242Z,15.70
2023-05-01T16:17:47.898Z,14.23
2023-05-01T16:20:17.172Z,14.25
2023-05-01T16:22:52.006Z,13.52
2023-05-01T16:25:19.606Z,12.15
2023-05-01T16:27:53.978Z,12.18
2023-05-01T16:30:24.547Z,12.68
2023-05-01T16:32:58.041Z,8.18
2023-05-01T16:35:27.584Z,4.32
2023-05-01T16:37:55.184Z,5.65
2023-05-01T16:43:00.768Z,4.00
2023-05-01T16:45:28.048Z,3.90
2023-05-01T16:48:02.154Z,2.80
2023-05-01T16:50:29.450Z,2.40
2023-05-01T16:52:56.905Z,1.95
2023-05-01T16:55:31.046Z,1.70
2023-05-01T16:57:58.212Z,1.70
2023-05-01T17:00:36.122Z,1.30
2023-05-01T17:03:03.448Z,1.45
2023-05-01T17:05:30.761Z,0.95
2023-05-01T17:08:03.962Z,1.10
2023-05-01T17:10:31.603Z,1.00
2023-05-01T17:15:39.101Z,1.27
2023-05-01T17:18:13.117Z,1.35
2023-05-01T17:20:47.112Z,1.60
2023-05-01T17:23:14.548Z,1.77
2023-05-01T17:25:41.813Z,1.75
2023-05-01T17:28:15.969Z,1.98
2023-05-01T17:30:43.305Z,2.28
2023-05-01T17:33:17.305Z,2.35
2023-05-01T17:35:45.201Z,3.10
2023-05-01T17:38:12.342Z,3.28
2023-05-01T17:40:45.960Z,3.10
2023-05-01T17:43:13.549Z,2.83
2023-05-01T17:48:14.495Z,3.08
2023-05-01T17:50:41.723Z,3.88
2023-05-01T17:53:15.992Z,3.67
2023-05-01T17:55:43.266Z,4.40
2023-05-01T17:58:17.000Z,5.10
2023-05-01T18:00:50.965Z,4.13
2023-05-01T18:03:18.418Z,4.78
2023-05-01T18:05:52.071Z,5.40
2023-05-01T18:08:19.256Z,4.72
2023-05-01T18:10:47.736Z,4.53
2023-05-01T18:13:22.275Z,4.57
2023-05-01T18:15:56.073Z,5.47
2023-05-01T18:18:30.200Z,4.85
2023-05-01T18:20:57.473Z,4.85
2023-05-01T18:23:25.302Z,4.80
2023-05-01T18:25:59.067Z,5.07
2023-05-01T18:28:26.927Z,5.20
2023-05-01T18:31:01.160Z,4.53
2023-05-01T18:33:28.428Z,4.40
2023-05-01T18:36:02.144Z,4.47
2023-05-01T18:38:29.418Z,4.35
2023-05-01T18:40:56.525Z,4.70
2023-05-01T18:43:30.076Z,4.13
2023-05-01T18:45:58.589Z,3.80
2023-05-01T18:48:32.152Z,3.65
2023-05-01T18:51:08.528Z,3.65
2023-05-01T18:53:43.037Z,3.63
2023-05-01T18:56:10.629Z,3.30
2023-05-01T19:01:13.221Z,3.00
2023-05-01T19:03:40.645Z,3.45
2023-05-01T19:06:17.344Z,3.60
2023-05-01T19:08:44.675Z,3.42
2023-05-01T19:11:11.841Z,3.50
2023-05-01T19:13:46.237Z,2.80
2023-05-01T19:16:20.050Z,3.40
2023-05-01T19:18:54.189Z,2.92
2023-05-01T19:21:21.446Z,2.30
2023-05-01T19:23:49.028Z,2.40
2023-05-01T19:26:22.991Z,2.25
2023-05-01T19:28:50.282Z,1.90
2023-05-01T19:31:26.274Z,2.25
2023-05-01T19:33:57.105Z,2.25
2023-05-01T19:36:24.193Z,2.35
2023-05-01T19:38:57.996Z,1.50
2023-05-01T19:41:25.216Z,1.30
2023-05-01T19:43:59.078Z,1.73
2023-05-01T19:46:26.381Z,1.80
2023-05-01T19:48:53.645Z,1.42
2023-05-01T19:51:27.023Z,1.73
2023-05-01T19:53:54.237Z,1.52
2023-05-01T19:56:28.283Z,1.60
2023-05-01T19:58:55.513Z,1.55
2023-05-01T20:01:22.978Z,1.48
2023-05-01T20:03:57.073Z,0.80
2023-05-01T20:06:24.320Z,1.08
2023-05-01T20:08:58.251Z,0.75
2023-05-01T20:11:25.507Z,1.10
2023-05-01T20:14:06.043Z,1.10
2023-05-01T20:16:40.027Z,1.10
2023-05-01T20:19:14.193Z,1.13
2023-05-01T20:21:41.431Z,1.20
2023-05-01T20:24:08.779Z,1.30
2023-05-01T20:26:43.316Z,1.10
2023-05-01T20:29:10.560Z,1.90
2023-05-01T20:31:37.712Z,1.83
2023-05-01T20:34:11.153Z,1.88
2023-05-01T20:36:38.597Z,1.77
2023-05-01T20:39:11.974Z,1.38
2023-05-01T20:41:39.362Z,1.70
2023-05-01T20:44:14.130Z,1.80
2023-05-01T20:46:41.638Z,1.75
2023-05-01T20:49:10.139Z,1.67
2023-05-01T20:51:45.122Z,1.42
2023-05-01T20:54:12.389Z,1.30
2023-05-01T20:56:46.271Z,1.33
2023-05-01T20:59:13.724Z,0.98
2023-05-01T21:01:40.956Z,1.20
2023-05-01T21:04:15.196Z,0.80
2023-05-01T21:06:42.596Z,1.23
2023-05-01T21:09:21.525Z,1.40
2023-05-01T21:11:49.337Z,1.25
2023-05-01T21:14:30.218Z,1.27
2023-05-01T21:16:57.421Z,1.15
2023-05-01T21:19:24.596Z,1.50
2023-05-01T21:22:00.038Z,1.20
2023-05-01T21:24:27.183Z,1.40
2023-05-01T21:27:01.285Z,1.20
2023-05-01T21:29:28.937Z,1.38
2023-05-01T21:34:30.138Z,1.30
2023-05-01T21:36:57.399Z,1.20
2023-05-01T21:39:31.290Z,0.60
2023-05-01T21:41:59.078Z,1.10
2023-05-01T21:44:29.841Z,0.75
2023-05-01T21:47:05.328Z,0.82
2023-05-01T21:49:32.682Z,0.80
2023-05-01T21:52:01.427Z,0.60
2023-05-01T21:54:38.048Z,0.85
2023-05-01T21:57:14.989Z,0.68
2023-05-01T21:59:49.123Z,0.60
2023-05-01T22:02:23.121Z,0.47
2023-05-01T22:04:54.700Z,0.60
2023-05-01T22:07:21.971Z,0.60
2023-05-01T22:09:56.077Z,0.80
2023-05-01T22:12:23.367Z,0.65
2023-05-01T22:14:57.175Z,0.60
2023-05-01T22:17:31.084Z,0.50
2023-05-01T22:20:05.204Z,0.47
2023-05-01T22:22:32.649Z,0.50
2023-05-01T22:24:59.813Z,0.57
2023-05-01T22:27:40.085Z,0.50
2023-05-01T22:30:07.490Z,0.63
2023-05-01T22:32:34.645Z,0.50
2023-05-01T22:35:29.554Z,0.57
2023-05-01T22:37:56.773Z,0.60
2023-05-01T22:40:31.310Z,0.70
2023-05-01T22:42:58.642Z,0.82
2023-05-01T22:45:25.740Z,0.80
2023-05-01T22:47:59.106Z,0.68
2023-05-01T22:50:26.342Z,0.80
2023-05-01T22:53:00.223Z,0.70
2023-05-01T22:55:27.802Z,0.93
2023-05-01T23:00:30.110Z,0.85
2023-05-01T23:02:57.436Z,1.20
2023-05-01T23:05:31.214Z,0.88
2023-05-01T23:07:58.448Z,1.13
2023-05-01T23:10:27.827Z,0.90
2023-05-01T23:13:02.116Z,1.27
2023-05-01T23:15:36.896Z,1.20
2023-05-01T23:18:10.086Z,1.15
2023-05-01T23:20:46.008Z,1.30
2023-05-01T23:23:19.762Z,1.10
2023-05-01T23:25:55.153Z,1.42
2023-05-01T23:28:23.472Z,1.45
2023-05-01T23:31:02.038Z,1.40
2023-05-01T23:33:41.227Z,1.60
2023-05-01T23:36:12.775Z,1.50
2023-05-01T23:38:40.406Z,1.95
2023-05-01T23:43:47.943Z,1.73
2023-05-01T23:46:22.083Z,1.48
2023-05-01T23:48:49.344Z,2.05
2023-05-01T23:51:16.426Z,1.30
2023-05-01T23:53:50.189Z,2.60
2023-05-01T23:56:17.780Z,2.47
2023-05-01T23:58:51.340Z,1.88
